sensor_id;sensor_type;location;lat;lon;timestamp;P1;durP1;ratioP1;P2;durP2;ratioP2
44832;SDS011;30569;51.252;9.830;2023-05-21T00:00:40;15.43;;;9.95;;
44832;SDS011;30569;51.252;9.830;2023-05-21T00:03:06;15.07;;;10.15;;
44832;SDS011;30569;51.252;9.830;2023-05-21T00:05:37;15.95;;;10.88;;
44832;SDS011;30569;51.252;9.830;2023-05-21T00:08:04;15.25;;;10.32;;
44832;SDS011;30569;51.252;9.830;2023-05-21T00:10:30;14.02;;;10.43;;
44832;SDS011;30569;51.252;9.830;2023-05-21T00:12:55;14.68;;;9.82;;
44832;SDS011;30569;51.252;9.830;2023-05-21T00:15:21;13.07;;;9.88;;
44832;SDS011;30569;51.252;9.830;2023-05-21T00:17:47;14.52;;;10.60;;
44832;SDS011;30569;51.252;9.830;2023-05-21T00:20:12;16.30;;;11.43;;
44832;SDS011;30569;51.252;9.830;2023-05-21T00:22:38;16.70;;;11.23;;
44832;SDS011;30569;51.252;9.830;2023-05-21T00:25:06;19.92;;;11.43;;
44832;SDS011;30569;51.252;9.830;2023-05-21T00:27:32;20.77;;;11.68;;
44832;SDS011;30569;51.252;9.830;2023-05-21T00:29:57;16.23;;;10.57;;
44832;SDS011;30569;51.252;9.830;2023-05-21T00:32:23;16.88;;;12.27;;
44832;SDS011;30569;51.252;9.830;2023-05-21T00:34:49;15.85;;;10.93;;
44832;SDS011;30569;51.252;9.830;2023-05-21T00:37:14;16.23;;;11.43;;
44832;SDS011;30569;51.252;9.830;2023-05-21T00:39:40;17.25;;;11.27;;
44832;SDS011;30569;51.252;9.830;2023-05-21T00:42:06;20.15;;;12.00;;
44832;SDS011;30569;51.252;9.830;2023-05-21T00:44:31;17.45;;;12.68;;
44832;SDS011;30569;51.252;9.830;2023-05-21T00:46:58;16.98;;;12.02;;
44832;SDS011;30569;51.252;9.830;2023-05-21T00:49:28;17.40;;;13.05;;
44832;SDS011;30569;51.252;9.830;2023-05-21T00:51:54;21.33;;;11.40;;
44832;SDS011;30569;51.252;9.830;2023-05-21T00:54:20;18.92;;;11.88;;
44832;SDS011;30569;51.252;9.830;2023-05-21T00:56:46;16.20;;;11.48;;
44832;SDS011;30569;51.252;9.830;2023-05-21T00:59:13;15.75;;;11.40;;
44832;SDS011;30569;51.252;9.830;2023-05-21T01:01:40;17.85;;;11.95;;
44832;SDS011;30569;51.252;9.830;2023-05-21T01:04:10;17.92;;;12.55;;
44832;SDS011;30569;51.252;9.830;2023-05-21T01:06:36;16.80;;;11.25;;
44832;SDS011;30569;51.252;9.830;2023-05-21T01:09:02;18.60;;;12.30;;
44832;SDS011;30569;51.252;9.830;2023-05-21T01:11:37;16.75;;;12.15;;
44832;SDS011;30569;51.252;9.830;2023-05-21T01:14:13;18.70;;;12.00;;
44832;SDS011;30569;51.252;9.830;2023-05-21T01:16:41;17.33;;;12.07;;
44832;SDS011;30569;51.252;9.830;2023-05-21T01:19:17;19.23;;;13.23;;
44832;SDS011;30569;51.252;9.830;2023-05-21T01:21:47;19.10;;;12.77;;
44832;SDS011;30569;51.252;9.830;2023-05-21T01:24:16;19.33;;;12.63;;
44832;SDS011;30569;51.252;9.830;2023-05-21T01:26:43;20.65;;;12.30;;
44832;SDS011;30569;51.252;9.830;2023-05-21T01:29:10;18.13;;;12.65;;
44832;SDS011;30569;51.252;9.830;2023-05-21T01:34:27;17.60;;;12.90;;
44832;SDS011;30569;51.252;9.830;2023-05-21T01:37:03;17.63;;;12.45;;
44832;SDS011;30569;51.252;9.830;2023-05-21T01:39:38;16.33;;;12.15;;
44832;SDS011;30569;51.252;9.830;2023-05-21T01:42:08;18.27;;;13.00;;
44832;SDS011;30569;51.252;9.830;2023-05-21T01:44:35;17.13;;;12.98;;
44832;SDS011;30569;51.252;9.830;2023-05-21T01:47:01;19.75;;;13.00;;
44832;SDS011;30569;51.252;9.830;2023-05-21T01:49:28;20.92;;;12.55;;
44832;SDS011;30569;51.252;9.830;2023-05-21T01:51:54;20.15;;;12.95;;
44832;SDS011;30569;51.252;9.830;2023-05-21T01:54:20;20.42;;;13.98;;
44832;SDS011;30569;51.252;9.830;2023-05-21T01:56:48;23.15;;;14.63;;
44832;SDS011;30569;51.252;9.830;2023-05-21T01:59:14;20.67;;;13.90;;
44832;SDS011;30569;51.252;9.830;2023-05-21T02:01:41;21.10;;;13.43;;
44832;SDS011;30569;51.252;9.830;2023-05-21T02:04:06;19.60;;;14.18;;
44832;SDS011;30569;51.252;9.830;2023-05-21T02:06:32;25.45;;;15.57;;
44832;SDS011;30569;51.252;9.830;2023-05-21T02:08:59;20.13;;;14.38;;
44832;SDS011;30569;51.252;9.830;2023-05-21T02:11:26;19.45;;;13.38;;
44832;SDS011;30569;51.252;9.830;2023-05-21T02:13:51;21.40;;;14.95;;
44832;SDS011;30569;51.252;9.830;2023-05-21T02:16:18;18.98;;;14.13;;
44832;SDS011;30569;51.252;9.830;2023-05-21T02:18:44;23.90;;;14.65;;
44832;SDS011;30569;51.252;9.830;2023-05-21T02:21:10;19.58;;;14.35;;
44832;SDS011;30569;51.252;9.830;2023-05-21T02:23:36;20.65;;;14.32;;
44832;SDS011;30569;51.252;9.830;2023-05-21T02:26:02;20.30;;;15.02;;
44832;SDS011;30569;51.252;9.830;2023-05-21T02:28:28;20.63;;;14.20;;
44832;SDS011;30569;51.252;9.830;2023-05-21T02:30:56;21.48;;;15.13;;
44832;SDS011;30569;51.252;9.830;2023-05-21T02:33:22;23.13;;;13.82;;
44832;SDS011;30569;51.252;9.830;2023-05-21T02:35:47;26.70;;;15.07;;
44832;SDS011;30569;51.252;9.830;2023-05-21T02:38:13;23.95;;;14.35;;
44832;SDS011;30569;51.252;9.830;2023-05-21T02:40:43;21.02;;;15.10;;
44832;SDS011;30569;51.252;9.830;2023-05-21T02:43:11;21.23;;;14.40;;
44832;SDS011;30569;51.252;9.830;2023-05-21T02:45:37;21.33;;;14.95;;
44832;SDS011;30569;51.252;9.830;2023-05-21T02:48:02;25.73;;;17.25;;
44832;SDS011;30569;51.252;9.830;2023-05-21T02:50:28;22.85;;;16.20;;
44832;SDS011;30569;51.252;9.830;2023-05-21T02:52:53;26.42;;;16.23;;
44832;SDS011;30569;51.252;9.830;2023-05-21T02:55:19;24.85;;;15.73;;
44832;SDS011;30569;51.252;9.830;2023-05-21T02:57:45;25.02;;;16.50;;
44832;SDS011;30569;51.252;9.830;2023-05-21T03:00:10;24.73;;;17.27;;
44832;SDS011;30569;51.252;9.830;2023-05-21T03:02:37;26.95;;;17.50;;
44832;SDS011;30569;51.252;9.830;2023-05-21T03:05:02;23.88;;;17.05;;
44832;SDS011;30569;51.252;9.830;2023-05-21T03:07:29;22.92;;;16.42;;
44832;SDS011;30569;51.252;9.830;2023-05-21T03:09:54;24.30;;;16.70;;
44832;SDS011;30569;51.252;9.830;2023-05-21T03:12:20;26.83;;;17.48;;
44832;SDS011;30569;51.252;9.830;2023-05-21T03:14:47;24.20;;;17.50;;
44832;SDS011;30569;51.252;9.830;2023-05-21T03:17:13;27.00;;;18.48;;
44832;SDS011;30569;51.252;9.830;2023-05-21T03:19:39;25.95;;;19.35;;
44832;SDS011;30569;51.252;9.830;2023-05-21T03:22:05;28.25;;;19.60;;
44832;SDS011;30569;51.252;9.830;2023-05-21T03:24:31;28.42;;;19.83;;
44832;SDS011;30569;51.252;9.830;2023-05-21T03:26:57;27.00;;;19.52;;
44832;SDS011;30569;51.252;9.830;2023-05-21T03:29:23;26.63;;;19.52;;
44832;SDS011;30569;51.252;9.830;2023-05-21T03:31:50;31.58;;;19.13;;
44832;SDS011;30569;51.252;9.830;2023-05-21T03:34:16;30.15;;;20.02;;
44832;SDS011;30569;51.252;9.830;2023-05-21T03:36:44;30.88;;;20.83;;
44832;SDS011;30569;51.252;9.830;2023-05-21T03:39:10;31.05;;;20.65;;
44832;SDS011;30569;51.252;9.830;2023-05-21T03:41:36;29.33;;;19.42;;
44832;SDS011;30569;51.252;9.830;2023-05-21T03:44:01;29.40;;;18.75;;
44832;SDS011;30569;51.252;9.830;2023-05-21T03:46:27;30.40;;;20.65;;
44832;SDS011;30569;51.252;9.830;2023-05-21T03:48:53;30.80;;;21.13;;
44832;SDS011;30569;51.252;9.830;2023-05-21T03:51:18;32.83;;;22.35;;
44832;SDS011;30569;51.252;9.830;2023-05-21T03:53:44;32.30;;;22.60;;
44832;SDS011;30569;51.252;9.830;2023-05-21T03:56:10;31.17;;;22.58;;
44832;SDS011;30569;51.252;9.830;2023-05-21T03:58:35;33.33;;;23.33;;
44832;SDS011;30569;51.252;9.830;2023-05-21T04:01:01;34.00;;;23.13;;
44832;SDS011;30569;51.252;9.830;2023-05-21T04:03:28;31.65;;;22.85;;
44832;SDS011;30569;51.252;9.830;2023-05-21T04:05:54;32.63;;;21.83;;
44832;SDS011;30569;51.252;9.830;2023-05-21T04:08:20;31.63;;;22.17;;
44832;SDS011;30569;51.252;9.830;2023-05-21T04:10:46;29.67;;;21.00;;
44832;SDS011;30569;51.252;9.830;2023-05-21T04:13:11;29.50;;;21.27;;
44832;SDS011;30569;51.252;9.830;2023-05-21T04:15:37;29.20;;;20.42;;
44832;SDS011;30569;51.252;9.830;2023-05-21T04:18:03;30.73;;;22.25;;
44832;SDS011;30569;51.252;9.830;2023-05-21T04:20:29;31.83;;;21.73;;
44832;SDS011;30569;51.252;9.830;2023-05-21T04:22:55;31.92;;;22.00;;
44832;SDS011;30569;51.252;9.830;2023-05-21T04:25:20;30.38;;;21.13;;
44832;SDS011;30569;51.252;9.830;2023-05-21T04:27:47;28.65;;;20.73;;
44832;SDS011;30569;51.252;9.830;2023-05-21T04:30:14;26.63;;;18.83;;
44832;SDS011;30569;51.252;9.830;2023-05-21T04:32:40;26.95;;;19.85;;
44832;SDS011;30569;51.252;9.830;2023-05-21T04:35:09;26.80;;;20.25;;
44832;SDS011;30569;51.252;9.830;2023-05-21T04:37:36;30.73;;;20.60;;
44832;SDS011;30569;51.252;9.830;2023-05-21T04:40:06;29.95;;;21.38;;
44832;SDS011;30569;51.252;9.830;2023-05-21T04:42:33;25.63;;;19.33;;
44832;SDS011;30569;51.252;9.830;2023-05-21T04:44:59;28.67;;;19.75;;
44832;SDS011;30569;51.252;9.830;2023-05-21T04:47:25;30.70;;;21.02;;
44832;SDS011;30569;51.252;9.830;2023-05-21T04:49:54;26.17;;;19.63;;
44832;SDS011;30569;51.252;9.830;2023-05-21T04:52:19;26.73;;;20.15;;
44832;SDS011;30569;51.252;9.830;2023-05-21T04:54:45;25.95;;;20.00;;
44832;SDS011;30569;51.252;9.830;2023-05-21T04:57:11;31.48;;;20.42;;
44832;SDS011;30569;51.252;9.830;2023-05-21T04:59:38;28.75;;;20.08;;
44832;SDS011;30569;51.252;9.830;2023-05-21T05:02:04;25.95;;;19.63;;
44832;SDS011;30569;51.252;9.830;2023-05-21T05:04:30;30.92;;;20.02;;
44832;SDS011;30569;51.252;9.830;2023-05-21T05:06:56;27.08;;;19.45;;
44832;SDS011;30569;51.252;9.830;2023-05-21T05:09:21;25.35;;;19.42;;
44832;SDS011;30569;51.252;9.830;2023-05-21T05:11:49;26.48;;;19.80;;
44832;SDS011;30569;51.252;9.830;2023-05-21T05:14:15;33.22;;;20.85;;
44832;SDS011;30569;51.252;9.830;2023-05-21T05:16:41;27.95;;;21.42;;
44832;SDS011;30569;51.252;9.830;2023-05-21T05:19:06;28.55;;;20.95;;
44832;SDS011;30569;51.252;9.830;2023-05-21T05:21:32;26.88;;;20.30;;
44832;SDS011;30569;51.252;9.830;2023-05-21T05:23:58;26.92;;;20.38;;
44832;SDS011;30569;51.252;9.830;2023-05-21T05:26:24;25.17;;;19.08;;
44832;SDS011;30569;51.252;9.830;2023-05-21T05:28:51;29.95;;;20.50;;
44832;SDS011;30569;51.252;9.830;2023-05-21T05:31:17;27.17;;;20.40;;
44832;SDS011;30569;51.252;9.830;2023-05-21T05:33:43;30.75;;;21.08;;
44832;SDS011;30569;51.252;9.830;2023-05-21T05:36:08;24.75;;;18.25;;
44832;SDS011;30569;51.252;9.830;2023-05-21T05:38:35;28.83;;;20.05;;
44832;SDS011;30569;51.252;9.830;2023-05-21T05:41:00;28.55;;;19.88;;
44832;SDS011;30569;51.252;9.830;2023-05-21T05:43:26;26.73;;;19.15;;
44832;SDS011;30569;51.252;9.830;2023-05-21T05:45:51;23.75;;;18.98;;
44832;SDS011;30569;51.252;9.830;2023-05-21T05:48:17;26.50;;;20.05;;
44832;SDS011;30569;51.252;9.830;2023-05-21T05:50:43;23.92;;;19.65;;
44832;SDS011;30569;51.252;9.830;2023-05-21T05:53:09;24.38;;;18.15;;
44832;SDS011;30569;51.252;9.830;2023-05-21T05:55:37;27.98;;;19.20;;
44832;SDS011;30569;51.252;9.830;2023-05-21T05:58:03;25.65;;;19.63;;
44832;SDS011;30569;51.252;9.830;2023-05-21T06:00:29;23.52;;;19.38;;
44832;SDS011;30569;51.252;9.830;2023-05-21T06:02:54;27.90;;;19.83;;
44832;SDS011;30569;51.252;9.830;2023-05-21T06:05:20;23.48;;;19.13;;
44832;SDS011;30569;51.252;9.830;2023-05-21T06:07:46;25.95;;;18.60;;
44832;SDS011;30569;51.252;9.830;2023-05-21T06:10:12;27.75;;;20.42;;
44832;SDS011;30569;51.252;9.830;2023-05-21T06:12:37;26.27;;;18.70;;
44832;SDS011;30569;51.252;9.830;2023-05-21T06:15:03;24.75;;;18.00;;
44832;SDS011;30569;51.252;9.830;2023-05-21T06:17:30;24.13;;;18.05;;
44832;SDS011;30569;51.252;9.830;2023-05-21T06:19:55;24.55;;;18.48;;
44832;SDS011;30569;51.252;9.830;2023-05-21T06:22:21;25.95;;;18.30;;
44832;SDS011;30569;51.252;9.830;2023-05-21T06:24:46;24.40;;;18.55;;
44832;SDS011;30569;51.252;9.830;2023-05-21T06:27:12;22.05;;;17.00;;
44832;SDS011;30569;51.252;9.830;2023-05-21T06:29:38;23.00;;;17.42;;
44832;SDS011;30569;51.252;9.830;2023-05-21T06:32:05;23.77;;;17.20;;
44832;SDS011;30569;51.252;9.830;2023-05-21T06:34:31;23.30;;;17.98;;
44832;SDS011;30569;51.252;9.830;2023-05-21T06:36:57;25.00;;;18.67;;
44832;SDS011;30569;51.252;9.830;2023-05-21T06:39:22;21.73;;;17.13;;
44832;SDS011;30569;51.252;9.830;2023-05-21T06:41:48;25.92;;;17.23;;
44832;SDS011;30569;51.252;9.830;2023-05-21T06:44:14;24.92;;;18.17;;
44832;SDS011;30569;51.252;9.830;2023-05-21T06:46:40;25.77;;;18.45;;
44832;SDS011;30569;51.252;9.830;2023-05-21T06:49:06;20.70;;;16.58;;
44832;SDS011;30569;51.252;9.830;2023-05-21T06:51:32;24.67;;;18.15;;
44832;SDS011;30569;51.252;9.830;2023-05-21T06:53:58;25.73;;;19.23;;
44832;SDS011;30569;51.252;9.830;2023-05-21T06:56:23;24.17;;;18.80;;
44832;SDS011;30569;51.252;9.830;2023-05-21T06:58:49;27.20;;;19.70;;
44832;SDS011;30569;51.252;9.830;2023-05-21T07:01:14;23.80;;;18.38;;
44832;SDS011;30569;51.252;9.830;2023-05-21T07:03:40;24.15;;;17.08;;
44832;SDS011;30569;51.252;9.830;2023-05-21T07:06:06;22.73;;;17.38;;
44832;SDS011;30569;51.252;9.830;2023-05-21T07:08:32;26.15;;;18.65;;
44832;SDS011;30569;51.252;9.830;2023-05-21T07:10:58;26.10;;;19.50;;
44832;SDS011;30569;51.252;9.830;2023-05-21T07:13:24;23.08;;;17.80;;
44832;SDS011;30569;51.252;9.830;2023-05-21T07:15:49;31.02;;;24.35;;
44832;SDS011;30569;51.252;9.830;2023-05-21T07:18:15;27.55;;;19.63;;
44832;SDS011;30569;51.252;9.830;2023-05-21T07:20:41;23.95;;;17.60;;
44832;SDS011;30569;51.252;9.830;2023-05-21T07:23:07;21.42;;;16.80;;
44832;SDS011;30569;51.252;9.830;2023-05-21T07:25:33;24.52;;;17.00;;
44832;SDS011;30569;51.252;9.830;2023-05-21T07:27:59;23.23;;;16.92;;
44832;SDS011;30569;51.252;9.830;2023-05-21T07:30:25;21.55;;;16.50;;
44832;SDS011;30569;51.252;9.830;2023-05-21T07:32:51;23.10;;;16.92;;
44832;SDS011;30569;51.252;9.830;2023-05-21T07:35:16;21.98;;;17.13;;
44832;SDS011;30569;51.252;9.830;2023-05-21T07:37:43;22.63;;;16.95;;
44832;SDS011;30569;51.252;9.830;2023-05-21T07:40:08;22.55;;;16.70;;
44832;SDS011;30569;51.252;9.830;2023-05-21T07:42:34;20.33;;;16.05;;
44832;SDS011;30569;51.252;9.830;2023-05-21T07:45:00;19.65;;;15.52;;
44832;SDS011;30569;51.252;9.830;2023-05-21T07:47:26;20.40;;;16.38;;
44832;SDS011;30569;51.252;9.830;2023-05-21T07:49:52;18.95;;;14.98;;
44832;SDS011;30569;51.252;9.830;2023-05-21T07:52:17;20.15;;;15.60;;
44832;SDS011;30569;51.252;9.830;2023-05-21T07:54:43;18.38;;;15.07;;
44832;SDS011;30569;51.252;9.830;2023-05-21T07:57:09;16.92;;;14.07;;
44832;SDS011;30569;51.252;9.830;2023-05-21T07:59:35;18.65;;;14.25;;
44832;SDS011;30569;51.252;9.830;2023-05-21T08:02:00;18.13;;;15.30;;
44832;SDS011;30569;51.252;9.830;2023-05-21T08:04:26;25.52;;;14.27;;
44832;SDS011;30569;51.252;9.830;2023-05-21T08:06:51;18.02;;;14.23;;
44832;SDS011;30569;51.252;9.830;2023-05-21T08:09:17;21.45;;;15.00;;
44832;SDS011;30569;51.252;9.830;2023-05-21T08:11:44;15.95;;;13.23;;
44832;SDS011;30569;51.252;9.830;2023-05-21T08:14:10;17.88;;;13.55;;
44832;SDS011;30569;51.252;9.830;2023-05-21T08:16:36;17.05;;;13.00;;
44832;SDS011;30569;51.252;9.830;2023-05-21T08:19:01;19.92;;;14.00;;
44832;SDS011;30569;51.252;9.830;2023-05-21T08:21:27;17.95;;;12.75;;
44832;SDS011;30569;51.252;9.830;2023-05-21T08:23:53;17.88;;;13.93;;
44832;SDS011;30569;51.252;9.830;2023-05-21T08:26:19;16.60;;;13.30;;
44832;SDS011;30569;51.252;9.830;2023-05-21T08:28:45;18.92;;;14.10;;
44832;SDS011;30569;51.252;9.830;2023-05-21T08:31:11;16.60;;;14.50;;
44832;SDS011;30569;51.252;9.830;2023-05-21T08:33:37;17.08;;;14.25;;
44832;SDS011;30569;51.252;9.830;2023-05-21T08:36:06;18.52;;;13.93;;
44832;SDS011;30569;51.252;9.830;2023-05-21T08:38:32;16.58;;;13.68;;
44832;SDS011;30569;51.252;9.830;2023-05-21T08:40:58;21.58;;;13.85;;
44832;SDS011;30569;51.252;9.830;2023-05-21T08:43:26;16.23;;;13.30;;
44832;SDS011;30569;51.252;9.830;2023-05-21T08:45:52;17.00;;;14.35;;
44832;SDS011;30569;51.252;9.830;2023-05-21T08:48:19;17.40;;;14.40;;
44832;SDS011;30569;51.252;9.830;2023-05-21T08:50:47;16.98;;;14.15;;
44832;SDS011;30569;51.252;9.830;2023-05-21T08:53:14;19.35;;;14.02;;
44832;SDS011;30569;51.252;9.830;2023-05-21T08:55:40;16.65;;;13.80;;
44832;SDS011;30569;51.252;9.830;2023-05-21T08:58:07;17.00;;;14.13;;
44832;SDS011;30569;51.252;9.830;2023-05-21T09:00:34;18.02;;;13.85;;
44832;SDS011;30569;51.252;9.830;2023-05-21T09:03:01;21.98;;;14.18;;
44832;SDS011;30569;51.252;9.830;2023-05-21T09:05:32;16.33;;;12.98;;
44832;SDS011;30569;51.252;9.830;2023-05-21T09:08:04;20.42;;;13.80;;
44832;SDS011;30569;51.252;9.830;2023-05-21T09:10:41;17.63;;;14.50;;
44832;SDS011;30569;51.252;9.830;2023-05-21T09:13:13;17.38;;;13.75;;
44832;SDS011;30569;51.252;9.830;2023-05-21T09:15:41;21.20;;;13.93;;
44832;SDS011;30569;51.252;9.830;2023-05-21T09:18:06;17.20;;;14.05;;
44832;SDS011;30569;51.252;9.830;2023-05-21T09:20:32;17.48;;;13.70;;
44832;SDS011;30569;51.252;9.830;2023-05-21T09:23:01;17.25;;;14.45;;
44832;SDS011;30569;51.252;9.830;2023-05-21T09:25:28;16.65;;;13.30;;
44832;SDS011;30569;51.252;9.830;2023-05-21T09:27:55;15.70;;;12.98;;
44832;SDS011;30569;51.252;9.830;2023-05-21T09:30:21;19.80;;;13.45;;
44832;SDS011;30569;51.252;9.830;2023-05-21T09:32:52;17.48;;;14.30;;
44832;SDS011;30569;51.252;9.830;2023-05-21T09:35:20;18.58;;;13.65;;
44832;SDS011;30569;51.252;9.830;2023-05-21T09:37:47;16.45;;;13.82;;
44832;SDS011;30569;51.252;9.830;2023-05-21T09:40:14;15.15;;;12.35;;
44832;SDS011;30569;51.252;9.830;2023-05-21T09:42:45;17.20;;;12.38;;
44832;SDS011;30569;51.252;9.830;2023-05-21T09:45:12;15.15;;;12.15;;
44832;SDS011;30569;51.252;9.830;2023-05-21T09:47:51;16.15;;;11.65;;
44832;SDS011;30569;51.252;9.830;2023-05-21T09:52:48;15.20;;;11.50;;
44832;SDS011;30569;51.252;9.830;2023-05-21T09:55:16;15.18;;;11.95;;
44832;SDS011;30569;51.252;9.830;2023-05-21T09:57:44;15.70;;;11.48;;
44832;SDS011;30569;51.252;9.830;2023-05-21T10:03:01;14.30;;;12.13;;
44832;SDS011;30569;51.252;9.830;2023-05-21T10:05:33;12.80;;;11.32;;
44832;SDS011;30569;51.252;9.830;2023-05-21T10:08:00;16.02;;;12.20;;
44832;SDS011;30569;51.252;9.830;2023-05-21T10:10:27;13.98;;;11.77;;
44832;SDS011;30569;51.252;9.830;2023-05-21T10:13:02;16.48;;;12.20;;
44832;SDS011;30569;51.252;9.830;2023-05-21T10:15:31;18.58;;;12.15;;
44832;SDS011;30569;51.252;9.830;2023-05-21T10:18:01;15.45;;;12.95;;
44832;SDS011;30569;51.252;9.830;2023-05-21T10:20:28;15.25;;;12.52;;
44832;SDS011;30569;51.252;9.830;2023-05-21T10:22:54;15.13;;;11.88;;
44832;SDS011;30569;51.252;9.830;2023-05-21T10:25:22;15.13;;;12.38;;
44832;SDS011;30569;51.252;9.830;2023-05-21T10:27:49;17.23;;;11.80;;
44832;SDS011;30569;51.252;9.830;2023-05-21T10:30:14;15.55;;;11.70;;
44832;SDS011;30569;51.252;9.830;2023-05-21T10:32:42;17.00;;;12.63;;
44832;SDS011;30569;51.252;9.830;2023-05-21T10:35:08;16.65;;;12.13;;
44832;SDS011;30569;51.252;9.830;2023-05-21T10:37:34;17.50;;;11.82;;
44832;SDS011;30569;51.252;9.830;2023-05-21T10:40:00;17.15;;;12.57;;
44832;SDS011;30569;51.252;9.830;2023-05-21T10:50:45;14.80;;;11.60;;
44832;SDS011;30569;51.252;9.830;2023-05-21T10:54:14;14.60;;;12.10;;
44832;SDS011;30569;51.252;9.830;2023-05-21T11:02:11;14.57;;;11.32;;
44832;SDS011;30569;51.252;9.830;2023-05-21T11:04:39;13.52;;;11.48;;
44832;SDS011;30569;51.252;9.830;2023-05-21T11:07:07;15.27;;;11.70;;
44832;SDS011;30569;51.252;9.830;2023-05-21T11:09:33;14.90;;;11.45;;
44832;SDS011;30569;51.252;9.830;2023-05-21T11:11:59;12.95;;;11.02;;
44832;SDS011;30569;51.252;9.830;2023-05-21T11:14:40;16.67;;;12.00;;
44832;SDS011;30569;51.252;9.830;2023-05-21T11:17:38;16.65;;;11.18;;
44832;SDS011;30569;51.252;9.830;2023-05-21T11:20:14;14.88;;;11.25;;
44832;SDS011;30569;51.252;9.830;2023-05-21T11:22:40;14.73;;;11.63;;
44832;SDS011;30569;51.252;9.830;2023-05-21T11:25:06;15.68;;;11.43;;
44832;SDS011;30569;51.252;9.830;2023-05-21T11:27:33;14.57;;;11.45;;
44832;SDS011;30569;51.252;9.830;2023-05-21T11:30:06;25.80;;;12.90;;
44832;SDS011;30569;51.252;9.830;2023-05-21T11:32:37;13.65;;;11.20;;
44832;SDS011;30569;51.252;9.830;2023-05-21T11:35:06;14.23;;;11.73;;
44832;SDS011;30569;51.252;9.830;2023-05-21T11:37:33;14.13;;;11.30;;
44832;SDS011;30569;51.252;9.830;2023-05-21T11:40:14;15.95;;;11.63;;
44832;SDS011;30569;51.252;9.830;2023-05-21T11:42:42;12.90;;;10.73;;
44832;SDS011;30569;51.252;9.830;2023-05-21T11:45:12;15.32;;;12.20;;
44832;SDS011;30569;51.252;9.830;2023-05-21T11:47:42;14.43;;;11.13;;
44832;SDS011;30569;51.252;9.830;2023-05-21T11:50:11;12.48;;;11.07;;
44832;SDS011;30569;51.252;9.830;2023-05-21T11:52:38;14.02;;;11.02;;
44832;SDS011;30569;51.252;9.830;2023-05-21T11:55:05;14.63;;;10.68;;
44832;SDS011;30569;51.252;9.830;2023-05-21T11:57:31;12.18;;;10.85;;
44832;SDS011;30569;51.252;9.830;2023-05-21T11:59:58;13.57;;;11.23;;
44832;SDS011;30569;51.252;9.830;2023-05-21T12:02:29;14.63;;;11.20;;
44832;SDS011;30569;51.252;9.830;2023-05-21T12:04:55;17.55;;;13.30;;
44832;SDS011;30569;51.252;9.830;2023-05-21T12:07:27;12.98;;;10.63;;
44832;SDS011;30569;51.252;9.830;2023-05-21T12:09:54;14.23;;;11.15;;
44832;SDS011;30569;51.252;9.830;2023-05-21T12:12:21;10.70;;;9.50;;
44832;SDS011;30569;51.252;9.830;2023-05-21T12:14:48;13.13;;;10.23;;
44832;SDS011;30569;51.252;9.830;2023-05-21T12:17:17;11.95;;;10.18;;
44832;SDS011;30569;51.252;9.830;2023-05-21T12:19:48;14.30;;;10.35;;
44832;SDS011;30569;51.252;9.830;2023-05-21T12:22:15;11.85;;;9.77;;
44832;SDS011;30569;51.252;9.830;2023-05-21T12:24:41;12.77;;;10.70;;
44832;SDS011;30569;51.252;9.830;2023-05-21T12:27:08;13.15;;;10.07;;
44832;SDS011;30569;51.252;9.830;2023-05-21T12:29:37;13.05;;;10.38;;
44832;SDS011;30569;51.252;9.830;2023-05-21T12:32:06;13.48;;;9.98;;
44832;SDS011;30569;51.252;9.830;2023-05-21T12:34:40;13.35;;;10.65;;
44832;SDS011;30569;51.252;9.830;2023-05-21T12:39:46;11.43;;;10.02;;
44832;SDS011;30569;51.252;9.830;2023-05-21T12:42:13;17.40;;;10.40;;
44832;SDS011;30569;51.252;9.830;2023-05-21T12:44:46;12.15;;;10.10;;
44832;SDS011;30569;51.252;9.830;2023-05-21T12:47:12;14.27;;;11.23;;
44832;SDS011;30569;51.252;9.830;2023-05-21T12:49:39;13.15;;;10.35;;
44832;SDS011;30569;51.252;9.830;2023-05-21T12:52:08;12.90;;;10.05;;
44832;SDS011;30569;51.252;9.830;2023-05-21T12:54:35;11.90;;;9.50;;
44832;SDS011;30569;51.252;9.830;2023-05-21T12:57:08;14.20;;;10.50;;
44832;SDS011;30569;51.252;9.830;2023-05-21T12:59:43;12.65;;;10.48;;
44832;SDS011;30569;51.252;9.830;2023-05-21T13:02:12;12.93;;;9.90;;
44832;SDS011;30569;51.252;9.830;2023-05-21T13:04:42;14.70;;;9.98;;
44832;SDS011;30569;51.252;9.830;2023-05-21T13:07:08;13.00;;;10.70;;
44832;SDS011;30569;51.252;9.830;2023-05-21T13:09:33;12.10;;;10.27;;
44832;SDS011;30569;51.252;9.830;2023-05-21T13:11:59;13.80;;;10.48;;
44832;SDS011;30569;51.252;9.830;2023-05-21T13:14:24;13.10;;;10.52;;
44832;SDS011;30569;51.252;9.830;2023-05-21T13:16:50;12.50;;;10.55;;
44832;SDS011;30569;51.252;9.830;2023-05-21T13:19:16;14.75;;;10.95;;
44832;SDS011;30569;51.252;9.830;2023-05-21T13:21:42;13.13;;;10.25;;
44832;SDS011;30569;51.252;9.830;2023-05-21T13:24:07;11.50;;;9.40;;
44832;SDS011;30569;51.252;9.830;2023-05-21T13:26:33;19.83;;;10.43;;
44832;SDS011;30569;51.252;9.830;2023-05-21T13:28:58;14.48;;;10.20;;
44832;SDS011;30569;51.252;9.830;2023-05-21T13:31:24;14.10;;;9.80;;
44832;SDS011;30569;51.252;9.830;2023-05-21T13:33:49;13.18;;;9.95;;
44832;SDS011;30569;51.252;9.830;2023-05-21T13:36:15;11.75;;;9.75;;
44832;SDS011;30569;51.252;9.830;2023-05-21T13:38:41;13.90;;;10.05;;
44832;SDS011;30569;51.252;9.830;2023-05-21T13:41:06;11.68;;;10.15;;
44832;SDS011;30569;51.252;9.830;2023-05-21T13:43:32;12.25;;;9.65;;
44832;SDS011;30569;51.252;9.830;2023-05-21T13:45:58;18.73;;;10.50;;
44832;SDS011;30569;51.252;9.830;2023-05-21T13:48:23;12.55;;;10.35;;
44832;SDS011;30569;51.252;9.830;2023-05-21T13:50:49;13.23;;;10.32;;
44832;SDS011;30569;51.252;9.830;2023-05-21T13:53:14;15.57;;;11.45;;
44832;SDS011;30569;51.252;9.830;2023-05-21T13:55:40;13.38;;;10.27;;
44832;SDS011;30569;51.252;9.830;2023-05-21T13:58:06;11.63;;;10.27;;
44832;SDS011;30569;51.252;9.830;2023-05-21T14:00:32;12.52;;;9.90;;
44832;SDS011;30569;51.252;9.830;2023-05-21T14:02:58;13.77;;;9.75;;
44832;SDS011;30569;51.252;9.830;2023-05-21T14:05:23;14.55;;;9.85;;
44832;SDS011;30569;51.252;9.830;2023-05-21T14:07:49;12.13;;;10.20;;
44832;SDS011;30569;51.252;9.830;2023-05-21T14:10:15;14.32;;;10.27;;
44832;SDS011;30569;51.252;9.830;2023-05-21T14:12:41;15.20;;;9.63;;
44832;SDS011;30569;51.252;9.830;2023-05-21T14:15:06;13.02;;;9.70;;
44832;SDS011;30569;51.252;9.830;2023-05-21T14:17:32;14.55;;;12.30;;
44832;SDS011;30569;51.252;9.830;2023-05-21T14:19:58;13.98;;;9.75;;
44832;SDS011;30569;51.252;9.830;2023-05-21T14:22:23;12.18;;;10.10;;
44832;SDS011;30569;51.252;9.830;2023-05-21T14:24:49;14.15;;;10.15;;
44832;SDS011;30569;51.252;9.830;2023-05-21T14:27:14;13.80;;;10.18;;
44832;SDS011;30569;51.252;9.830;2023-05-21T14:29:40;14.00;;;10.13;;
44832;SDS011;30569;51.252;9.830;2023-05-21T14:32:06;13.25;;;10.32;;
44832;SDS011;30569;51.252;9.830;2023-05-21T14:34:31;13.18;;;9.65;;
44832;SDS011;30569;51.252;9.830;2023-05-21T14:36:57;13.65;;;9.80;;
44832;SDS011;30569;51.252;9.830;2023-05-21T14:39:23;11.35;;;9.50;;
44832;SDS011;30569;51.252;9.830;2023-05-21T14:41:48;11.60;;;9.07;;
44832;SDS011;30569;51.252;9.830;2023-05-21T14:44:14;12.45;;;9.95;;
44832;SDS011;30569;51.252;9.830;2023-05-21T14:46:40;12.85;;;8.90;;